Flight Track Log - Related Links

Times and Time Zones

All times are in EDT time to prevent confusion due to time zone crossing. See the SWA3924 flight status page for this flight to view local times or setup timezone preferences in your user account.

Time Position Orientation Groundspeed Altitude Reporting Facility
EDT Latitude Longitude Course Direction KTS MPH feet Rate Location/Type
Wed 03:43:05 PM 36.1333 -86.7000 292° West 162 186 1,300  Level Nashville TRACON
Wed 03:44:05 PM 36.1500 -86.7500 292° West 214 246 3,300 2,231 Climbing Nashville TRACON
Wed 03:45:06 PM 36.1500 -86.8333 270° West 259 298 5,800 2,876 Climbing Nashville TRACON
Wed 03:46:06 PM 36.1667 -86.9167 284° West 262 302 9,100 3,140 Climbing Nashville TRACON
Wed 03:46:32 PM 36.1833 -86.9731 290° West 283 326 10,300 2,163 Climbing Memphis Center
Wed 03:47:32 PM 36.2111 -87.0797 288° West 317 365 12,200 2,350 Climbing Memphis Center
Wed 03:48:32 PM 36.2414 -87.1994 287° West 346 398 15,000 2,800 Climbing Memphis Center
Wed 03:49:32 PM 36.2714 -87.3219 287° West 369 425 17,800 2,600 Climbing Memphis Center
Wed 03:50:32 PM 36.3017 -87.4469 287° West 374 430 20,200 2,150 Climbing Memphis Center
Wed 03:51:32 PM 36.3147 -87.5703 278° West 389 448 22,100 2,050 Climbing Memphis Center
Wed 03:52:32 PM 36.3056 -87.7147 266° West 405 466 24,300 2,050 Climbing Memphis Center
Wed 03:53:32 PM 36.2981 -87.8567 266° West 423 487 26,200 1,750 Climbing Memphis Center
Wed 03:54:32 PM 36.2906 -88.0061 266° West 434 499 27,800 1,400 Climbing Memphis Center
Wed 03:55:32 PM 36.2850 -88.1531 267° West 434 499 29,000 1,500 Climbing Memphis Center
Wed 03:56:32 PM 36.2772 -88.3078 266° West 440 506 30,800 1,800 Climbing Memphis Center
Wed 03:57:32 PM 36.2692 -88.4572 266° West 445 512 32,600 1,900 Climbing Memphis Center
Wed 03:58:32 PM 36.2586 -88.6042 265° West 440 506 34,600 1,550 Climbing Memphis Center
Wed 03:59:32 PM 36.2522 -88.7486 267° West 440 506 35,700 700 Climbing Memphis Center
Wed 04:00:32 PM 36.2417 -88.8953 265° West 435 501 36,000 200 Climbing Memphis Center
Wed 04:01:32 PM 36.2328 -89.0422 266° West 430 495 36,100 100 Climbing Memphis Center
Wed 04:02:32 PM 36.2219 -89.1889 265° West 430 495 36,200 850 Climbing Memphis Center
Wed 04:03:32 PM 36.2106 -89.3408 265° West 436 502 37,800 950 Climbing Memphis Center
Wed 04:04:32 PM 36.2033 -89.4850 266° West 436 502 38,100 150 Climbing Memphis Center
Wed 04:05:32 PM 36.1939 -89.6419 266° West 430 495 38,100  Level Memphis Center
Wed 04:06:32 PM 36.1864 -89.7836 266° West 423 487 38,100  Level Memphis Center
Wed 04:07:32 PM 36.1850 -89.9250 269° West 423 487 38,100  Level Memphis Center
Wed 04:08:32 PM 36.1917 -90.0714 273° West 423 487 38,100  Level Memphis Center
Wed 04:09:32 PM 36.1981 -90.2131 273° West 423 487 38,100  Level Memphis Center
Wed 04:10:32 PM 36.2044 -90.3594 273° West 423 487 38,100  Level Memphis Center
Wed 04:11:32 PM 36.2106 -90.5061 273° West 423 487 38,100  Level Memphis Center
Wed 04:12:32 PM 36.2125 -90.6503 271° West 423 487 38,100  Level Memphis Center
Wed 04:13:32 PM 36.2183 -90.7969 273° West 423 487 38,100  Level Memphis Center
Wed 04:14:32 PM 36.2239 -90.9436 273° West 423 487 38,100  Level Memphis Center
Wed 04:15:32 PM 36.2317 -91.0850 274° West 423 487 38,100 -50 Level Memphis Center
Wed 04:16:32 PM 36.2328 -91.2267 271° West 423 487 38,000  Descending Memphis Center
Wed 04:18:32 PM 36.2428 -91.5175 273° West 423 487 38,100 33 Climbing Memphis Center
Wed 04:19:32 PM 36.2436 -91.6669 270° West 423 487 38,100  Level Memphis Center
Wed 04:20:32 PM 36.2544 -91.8111 275° West 423 487 38,100 -50 Level Memphis Center
Wed 04:21:32 PM 36.2569 -91.9553 271° West 423 487 38,000  Descending Memphis Center
Wed 04:22:32 PM 36.2611 -92.1022 272° West 423 487 38,100  Climbing Memphis Center
Wed 04:23:32 PM 36.2633 -92.2461 271° West 423 487 38,000  Descending Memphis Center
Wed 04:24:32 PM 36.2650 -92.3906 271° West 423 487 38,100 50 Climbing Memphis Center
Wed 04:25:32 PM 36.2689 -92.5347 272° West 423 487 38,100 -50 Level Memphis Center
Wed 04:26:32 PM 36.2725 -92.6789 272° West 423 487 38,000 -50 Descending Memphis Center
Wed 04:27:32 PM 36.2742 -92.8181 271° West 423 487 38,000 50 Level Memphis Center
Wed 04:28:32 PM 36.2753 -92.9622 271° West 416 479 38,100 50 Climbing Memphis Center
Wed 04:29:32 PM 36.2786 -93.0989 272° West 416 479 38,100  Level Memphis Center
Wed 04:30:32 PM 36.2797 -93.2403 271° West 416 479 38,100  Level Memphis Center
Wed 04:31:32 PM 36.2825 -93.3794 271° West 416 479 38,100  Level Memphis Center
Wed 04:32:32 PM 36.2833 -93.5161 270° West 411 473 38,100 -50 Level Memphis Center
Wed 04:33:32 PM 36.2858 -93.6578 271° West 411 473 38,000 -50 Descending Memphis Center
Wed 04:34:32 PM 36.2819 -93.8017 268° West 416 479 38,000 50 Level Memphis Center
Wed 04:35:32 PM 36.2844 -93.9408 271° West 416 479 38,100  Climbing Memphis Center
Wed 04:36:32 PM 36.2864 -94.0825 271° West 416 479 38,000 -32 Descending Memphis Center
Wed 04:38:41 PM 36.2922 -94.3558 272° West 404 465 38,000  Level Kansas City Center
Wed 04:39:43 PM 36.2936 -94.5231 271° West 404 465 38,000  Level Kansas City Center
Wed 04:40:45 PM 36.2936 -94.6611 270° West 402 463 38,000  Level Kansas City Center
Wed 04:41:47 PM 36.2933 -94.7994 270° West 402 463 38,000 48 Level Kansas City Center
Wed 04:42:49 PM 36.2933 -94.9386 270° West 403 464 38,100  Climbing Kansas City Center
Wed 04:43:51 PM 36.2931 -95.0769 270° West 401 461 38,000  Descending Kansas City Center
Wed 04:44:00 PM 36.2922 -95.0988 270° West  Level FlightAware Approximate
Wed 04:44:53 PM 36.2928 -95.2175 270° West 400 460 38,100  Level Kansas City Center
Wed 04:45:55 PM 36.2922 -95.3564 270° West 402 463 38,100 -48 Level Kansas City Center
Wed 04:46:58 PM 36.2906 -95.5242 269° West 407 468 38,000 -48 Descending Kansas City Center
Wed 04:48:00 PM 36.2897 -95.6636 270° West 406 467 38,000 32 Level Kansas City Center
Wed 04:49:00 PM 36.2877 -95.7990 269° West  Level FlightAware Approximate
Wed 04:50:04 PM 36.2881 -95.9500 269° West 402 463 38,100  Level Kansas City Center
Wed 04:51:06 PM 36.2858 -96.0861 269° West 397 457 38,100 -48 Level Kansas City Center
Wed 04:52:08 PM 36.2847 -96.2222 269° West 395 455 38,000  Descending Kansas City Center
Wed 04:53:10 PM 36.2825 -96.3581 269° West 394 453 38,100  Climbing Kansas City Center
Wed 04:54:12 PM 36.2811 -96.4947 269° West 395 455 38,000  Descending Kansas City Center
Wed 04:55:14 PM 36.2797 -96.6592 269° West 397 457 38,100  Climbing Kansas City Center
Wed 04:56:16 PM 36.2778 -96.7844 269° West 402 463 38,000 -48 Descending Kansas City Center
Wed 04:57:18 PM 36.2753 -96.9244 269° West 407 468 38,000  Level Kansas City Center
Wed 04:58:20 PM 36.2758 -97.0897 270° West 406 467 38,000  Level Kansas City Center
Wed 04:59:22 PM 36.3042 -97.2242 285° West 407 468 38,000  Level Kansas City Center
Wed 05:00:24 PM 36.3319 -97.3583 284° West 404 465 38,000  Level Kansas City Center
Wed 05:01:26 PM 36.3606 -97.4922 285° West 404 465 38,000  Level Kansas City Center
Wed 05:02:28 PM 36.3894 -97.6256 285° West 404 465 38,000  Level Kansas City Center
Wed 05:03:30 PM 36.4233 -97.7864 285° West 404 465 38,000  Level Kansas City Center
Wed 05:04:32 PM 36.4503 -97.9206 284° West 403 464 38,000  Level Kansas City Center
Wed 05:05:34 PM 36.4792 -98.0550 285° West 403 464 38,000  Level Kansas City Center
Wed 05:06:36 PM 36.5061 -98.1892 284° West 402 463 38,000  Level Kansas City Center
Wed 05:07:38 PM 36.5344 -98.3256 285° West 404 465 38,000 48 Level Kansas City Center
Wed 05:08:40 PM 36.5614 -98.4600 284° West 403 464 38,100 48 Climbing Kansas City Center
Wed 05:09:42 PM 36.5944 -98.6231 284° West 405 466 38,100  Level Kansas City Center
Wed 05:10:44 PM 36.6219 -98.7586 284° West 406 467 38,100 -48 Level Kansas City Center
Wed 05:11:46 PM 36.6497 -98.8942 284° West 406 467 38,000 -48 Descending Kansas City Center
Wed 05:12:49 PM 36.6758 -99.0272 284° West 400 460 38,000  Level Kansas City Center
Wed 05:13:51 PM 36.6983 -99.1603 282° West 396 456 38,000  Level Kansas City Center
Wed 05:14:53 PM 36.6883 -99.2975 265° West 398 458 38,000  Level Kansas City Center
Wed 05:15:55 PM 36.6744 -99.4622 264° West 400 460 38,000 48 Level Kansas City Center
Wed 05:16:57 PM 36.6619 -99.5986 264° West 399 459 38,100  Climbing Kansas City Center
Wed 05:17:59 PM 36.6506 -99.7367 264° West 401 461 38,000 -48 Descending Kansas City Center
Wed 05:19:01 PM 36.6386 -99.8731 264° West 399 459 38,000 48 Level Kansas City Center
Wed 05:20:03 PM 36.6278 -100.0097 264° West 399 459 38,100  Climbing Kansas City Center
Wed 05:21:05 PM 36.6147 -100.1467 263° West 397 457 38,000  Descending Kansas City Center
Wed 05:22:07 PM 36.5992 -100.3103 263° West 397 457 38,100 48 Climbing Kansas City Center
Wed 05:23:09 PM 36.5861 -100.4539 264° West 398 458 38,100 -48 Level Kansas City Center
Wed 05:24:11 PM 36.5731 -100.5850 263° West 398 458 38,000  Descending Kansas City Center
Wed 05:25:13 PM 36.5606 -100.7156 263° West 398 458 38,100 48 Climbing Kansas City Center
Wed 05:26:15 PM 36.5453 -100.8675 263° West 396 456 38,100  Level Kansas City Center
Wed 05:27:17 PM 36.5322 -100.9983 263° West 397 457 38,100  Level Kansas City Center
Wed 05:28:19 PM 36.5169 -101.1519 263° West 399 459 38,100  Level Kansas City Center
Wed 05:29:21 PM 36.5039 -101.2847 263° West 402 463 38,100  Level Kansas City Center
Wed 05:30:23 PM 36.4886 -101.4403 263° West 404 465 38,100  Level Kansas City Center
Wed 05:31:25 PM 36.4747 -101.5719 263° West 403 464 38,100 -48 Level Kansas City Center
Wed 05:32:27 PM 36.4597 -101.7086 262° West 402 463 38,000  Descending Kansas City Center
Wed 05:33:30 PM 36.4461 -101.8450 263° West 401 461 38,100  Climbing Kansas City Center
Wed 05:34:32 PM 36.4283 -102.0067 262° West 398 458 38,000  Descending Kansas City Center
Wed 05:35:34 PM 36.4139 -102.1419 262° West 397 457 38,100 48 Climbing Kansas City Center
Wed 05:36:36 PM 36.3994 -102.2792 263° West 401 461 38,100  Level Kansas City Center
Wed 05:37:38 PM 36.3844 -102.4150 262° West 399 459 38,100  Level Kansas City Center
Wed 05:38:49 PM 36.3656 -102.5808 262° West 406 467 38,100  Level Albuquerque Center
Wed 05:39:51 PM 36.3492 -102.7219 262° West 414 476 38,100 -49 Level Albuquerque Center
Wed 05:40:52 PM 36.3328 -102.8617 262° West 413 475 38,000  Descending Albuquerque Center
Wed 05:41:54 PM 36.3144 -103.0250 262° West 415 478 38,100 48 Climbing Albuquerque Center
Wed 05:42:56 PM 36.2981 -103.1672 262° West 414 476 38,100 -48 Level Albuquerque Center
Wed 05:43:58 PM 36.2828 -103.3103 262° West 417 480 38,000  Descending Albuquerque Center
Wed 05:45:00 PM 36.2656 -103.4517 261° West 415 478 38,100 48 Climbing Albuquerque Center
Wed 05:46:02 PM 36.2483 -103.5906 261° West 409 471 38,100  Level Albuquerque Center
Wed 05:47:04 PM 36.2286 -103.7553 262° West 412 474 38,100  Level Albuquerque Center
Wed 05:48:05 PM 36.2108 -103.8969 261° West 412 474 38,100 -49 Level Albuquerque Center
Wed 05:49:07 PM 36.1939 -104.0389 262° West 414 476 38,000  Descending Albuquerque Center
Wed 05:50:09 PM 36.1761 -104.1744 261° West 404 465 38,100 48 Climbing Albuquerque Center
Wed 05:51:11 PM 36.1578 -104.3103 261° West 401 461 38,100  Level Albuquerque Center
Wed 05:52:13 PM 36.1397 -104.4464 261° West 400 460 38,100  Level Albuquerque Center
Wed 05:53:15 PM 36.1236 -104.5817 262° West 398 458 38,100 -48 Level Albuquerque Center
Wed 05:54:17 PM 36.1028 -104.7394 261° West 397 457 38,000  Descending Albuquerque Center
Wed 05:55:18 PM 36.0842 -104.8764 260° West 401 461 38,100  Climbing Albuquerque Center
Wed 05:56:20 PM 36.0656 -105.0122 260° West 399 459 38,000  Descending Albuquerque Center
Wed 05:57:22 PM 36.0475 -105.1447 260° West 393 452 38,100 48 Climbing Albuquerque Center
Wed 05:58:25 PM 36.0294 -105.2772 260° West 390 449 38,100  Level Albuquerque Center
Wed 05:59:26 PM 36.0114 -105.4122 261° West 393 452 38,100 -49 Level Albuquerque Center
Wed 06:00:28 PM 35.9914 -105.5514 260° West 393 452 38,000  Descending Albuquerque Center
Wed 06:01:30 PM 35.9731 -105.6881 261° West 401 461 38,100  Climbing Albuquerque Center
Wed 06:02:32 PM 35.9547 -105.8242 261° West 403 464 38,000 -48 Descending Albuquerque Center
Wed 06:03:34 PM 35.9358 -105.9558 260° West 396 456 38,000 48 Level Albuquerque Center
Wed 06:04:36 PM 35.9142 -106.1139 260° West 391 450 38,100 48 Climbing Albuquerque Center
Wed 06:05:38 PM 35.8961 -106.2350 260° West 390 449 38,100  Level Albuquerque Center
Wed 06:06:40 PM 35.8761 -106.3853 261° West 395 455 38,100  Level Albuquerque Center
Wed 06:07:42 PM 35.8569 -106.5117 259° West 393 452 38,100 -48 Level Albuquerque Center
Wed 06:08:45 PM 35.8361 -106.6597 260° West 393 452 38,000  Descending Albuquerque Center
Wed 06:09:46 PM 35.8172 -106.7881 260° West 396 456 38,100  Climbing Albuquerque Center
Wed 06:10:48 PM 35.7944 -106.9358 259° West 394 453 38,000  Descending Albuquerque Center
Wed 06:11:50 PM 35.7747 -107.0611 259° West 390 449 38,100 48 Climbing Albuquerque Center
Wed 06:12:52 PM 35.7522 -107.2075 259° West 390 449 38,100 -48 Level Albuquerque Center
Wed 06:13:54 PM 35.7333 -107.3325 259° West 388 447 38,000  Descending Albuquerque Center
Wed 06:14:56 PM 35.7147 -107.4586 260° West 390 449 38,100  Climbing Albuquerque Center
Wed 06:15:58 PM 35.6917 -107.6056 259° West 392 451 38,000  Descending Albuquerque Center
Wed 06:17:00 PM 35.6711 -107.7347 259° West 398 458 38,100 48 Climbing Albuquerque Center
Wed 06:18:02 PM 35.6483 -107.8831 259° West 396 456 38,100  Level Albuquerque Center
Wed 06:19:04 PM 35.6283 -108.0111 259° West 398 458 38,100  Level Albuquerque Center
Wed 06:20:06 PM 35.6039 -108.1586 259° West 396 456 38,100  Level Albuquerque Center
Wed 06:21:08 PM 35.5839 -108.2847 259° West 392 451 38,100  Level Albuquerque Center
Wed 06:22:10 PM 35.5606 -108.4311 259° West 390 449 38,100 -48 Level Albuquerque Center
Wed 06:23:12 PM 35.5397 -108.5561 258° West 390 449 38,000 -48 Descending Albuquerque Center
Wed 06:24:14 PM 35.5144 -108.7017 258° West 388 447 38,000 48 Level Albuquerque Center
Wed 06:25:16 PM 35.4942 -108.8253 259° West 386 444 38,100 48 Climbing Albuquerque Center
Wed 06:26:18 PM 35.4739 -108.9494 259° West 387 445 38,100  Level Albuquerque Center
Wed 06:27:20 PM 35.4497 -109.0928 258° West 384 442 38,100  Level Albuquerque Center
Wed 06:28:22 PM 35.4281 -109.2186 258° West 388 447 38,100  Level Albuquerque Center
Wed 06:29:24 PM 35.4031 -109.3639 258° West 389 448 38,100  Level Albuquerque Center
Wed 06:30:26 PM 35.3819 -109.4875 258° West 392 451 38,100  Level Albuquerque Center
Wed 06:31:28 PM 35.3561 -109.6281 257° West 382 440 38,100  Level Albuquerque Center
Wed 06:32:30 PM 35.3347 -109.7497 258° West 379 436 38,100  Level Albuquerque Center
Wed 06:33:32 PM 35.3133 -109.8728 258° West 384 442 38,100  Level Albuquerque Center
Wed 06:34:33 PM 35.2872 -110.0139 257° West 382 440 38,100  Level Albuquerque Center
Wed 06:35:35 PM 35.2636 -110.1381 257° West 386 444 38,100  Level Albuquerque Center
Wed 06:36:37 PM 35.2369 -110.2825 257° West 390 449 38,100  Level Albuquerque Center
Wed 06:37:39 PM 35.2136 -110.4044 257° West 388 447 38,100  Level Albuquerque Center
Wed 06:38:41 PM 35.1883 -110.5486 258° West 387 445 38,100 -48 Level Albuquerque Center
Wed 06:39:43 PM 35.1650 -110.6722 257° West 388 447 38,000  Descending Albuquerque Center
Wed 06:40:45 PM 35.1378 -110.8153 257° West 388 447 38,100 49 Climbing Albuquerque Center
Wed 06:41:46 PM 35.1142 -110.9400 257° West 391 450 38,100  Level Albuquerque Center
Wed 06:42:48 PM 35.0919 -111.0650 258° West 392 451 38,100 -48 Level Albuquerque Center
Wed 06:43:50 PM 35.0683 -111.2081 259° West 401 461 38,000  Descending Albuquerque Center
Wed 06:44:52 PM 35.0436 -111.3372 257° West 395 455 38,100  Climbing Albuquerque Center
Wed 06:45:54 PM 35.0194 -111.4656 257° West 392 451 38,000 -48 Descending Albuquerque Center
Wed 06:46:56 PM 34.9903 -111.6194 257° West 390 449 38,000  Level Albuquerque Center
Wed 06:47:57 PM 34.9658 -111.7408 256° West 391 450 38,000  Level Albuquerque Center
Wed 06:48:59 PM 34.9417 -111.8697 257° West 391 450 38,000  Level Albuquerque Center
Wed 06:50:01 PM 34.9164 -111.9975 256° West 390 449 38,000  Level Albuquerque Center
Wed 06:51:03 PM 34.8908 -112.1267 256° West 391 450 38,000  Level Albuquerque Center
Wed 06:52:05 PM 34.8606 -112.2786 256° West 388 447 38,000  Level Albuquerque Center
Wed 06:53:06 PM 34.8358 -112.4067 257° West 388 447 38,000  Level Albuquerque Center
Wed 06:54:08 PM 34.8103 -112.5342 256° West 388 447 38,000  Level Albuquerque Center
Wed 06:55:10 PM 34.7842 -112.6619 256° West 389 448 38,000  Level Albuquerque Center
Wed 06:56:12 PM 34.7578 -112.7908 256° West 391 450 38,000  Level Albuquerque Center
Wed 06:57:13 PM 34.7317 -112.9214 256° West 395 455 38,000  Level Albuquerque Center
Wed 06:58:15 PM 34.7050 -113.0519 256° West 398 458 38,000  Level Albuquerque Center
Wed 06:59:17 PM 34.6722 -113.2100 256° West 401 461 38,000  Level Albuquerque Center
Wed 07:00:19 PM 34.6450 -113.3439 256° West 404 465 38,000  Level Albuquerque Center
Wed 07:01:20 PM 34.6181 -113.4756 256° West 404 465 38,000  Level Albuquerque Center
Wed 07:02:22 PM 34.5900 -113.6050 255° West 402 463 38,000 48 Level Albuquerque Center
Wed 07:03:24 PM 34.5606 -113.7392 255° West 400 460 38,100 48 Climbing Albuquerque Center
Wed 07:04:26 PM 34.5331 -113.8700 256° West 401 461 38,100  Level Albuquerque Center
Wed 07:05:27 PM 34.5047 -114.0008 255° West 401 461 38,100  Level Albuquerque Center
Wed 07:06:29 PM 34.4772 -114.1322 256° West 402 463 38,100 -74 Level Albuquerque Center
Wed 07:06:48 PM 34.4664 -114.1844 256° West 402 463 38,000 -74 Descending Los Angeles Center
Wed 07:07:50 PM 34.4381 -114.3144 255° West 402 463 38,000  Level Los Angeles Center
Wed 07:08:52 PM 34.4092 -114.4453 255° West 403 464 38,000  Level Los Angeles Center
Wed 07:09:54 PM 34.3836 -114.6072 259° West 408 470 38,000  Level Los Angeles Center
Wed 07:10:56 PM 34.3631 -114.7408 259° West 408 470 38,000  Level Los Angeles Center
Wed 07:11:58 PM 34.3408 -114.8747 259° West 407 468 38,000  Level Los Angeles Center
Wed 07:13:00 PM 34.3189 -115.0081 259° West 406 467 38,000  Level Los Angeles Center
Wed 07:14:02 PM 34.3017 -115.1161 259° West 410 472 38,000  Level Los Angeles Center
Wed 07:15:04 PM 34.2750 -115.2761 259° West 407 468 38,000  Level Los Angeles Center
Wed 07:16:07 PM 34.2475 -115.4375 258° West 410 472 38,000  Level Los Angeles Center
Wed 07:17:09 PM 34.2264 -115.5717 259° West 408 470 38,000  Level Los Angeles Center
Wed 07:18:11 PM 34.2022 -115.7058 258° West 410 472 38,000  Level Los Angeles Center
Wed 07:19:12 PM 34.1842 -115.8117 258° West 407 468 38,000 -194 Level Los Angeles Center
Wed 07:20:15 PM 34.1550 -115.9828 258° West 410 472 37,600 -1,440 Descending Los Angeles Center
Wed 07:21:17 PM 34.1319 -116.1158 258° West 406 467 35,000 -2,806 Descending Los Angeles Center
Wed 07:22:19 PM 34.1061 -116.2653 258° West 408 470 31,800 -2,661 Descending Los Angeles Center
Wed 07:23:21 PM 34.0833 -116.3958 258° West 400 460 29,500 -1,951 Descending Los Angeles Center
Wed 07:24:22 PM 34.0650 -116.4969 258° West 390 449 27,800 -2,032 Descending Los Angeles Center
Wed 07:25:25 PM 34.0394 -116.6419 258° West 371 427 25,300 -2,016 Descending Los Angeles Center
Wed 07:26:27 PM 34.0219 -116.7386 258° West 370 426 23,600 -2,278 Descending Los Angeles Center
Wed 07:27:13 PM 34.0000 -116.8833 260° West 367 422 21,200 -2,580 Descending Southern California TRACON
Wed 07:28:07 PM 33.9833 -116.9833 259° West 351 404 19,300 -2,050 Descending Southern California TRACON
Wed 07:29:13 PM 33.9500 -117.1000 251° West 346 398 17,100 -1,143 Descending Southern California TRACON
Wed 07:30:13 PM 33.9500 -117.2167 270° West 336 387 16,900 -1,050 Descending Southern California TRACON
Wed 07:31:13 PM 33.9333 -117.3333 260° West 330 380 15,000 -1,950 Descending Southern California TRACON
Wed 07:32:13 PM 33.9500 -117.4333 281° West 326 375 13,000 -1,934 Descending Southern California TRACON
Wed 07:33:14 PM 33.9833 -117.5333 292° West 325 374 11,100 -1,488 Descending Southern California TRACON
Wed 07:34:14 PM 34.0167 -117.6333 292° West 354 407 10,000 -850 Descending Southern California TRACON
Wed 07:35:14 PM 34.0000 -117.7333 259° West 284 327 9,400 -1,050 Descending Southern California TRACON
Wed 07:36:14 PM 34.0000 -117.8333 270° West 293 337 7,900 -1,400 Descending Southern California TRACON
Wed 07:37:14 PM 33.9833 -117.9333 259° West 289 333 6,600 -1,150 Descending Southern California TRACON
Wed 07:38:14 PM 33.9667 -118.0167 256° West 267 307 5,600 -950 Descending Southern California TRACON
Wed 07:39:14 PM 33.9667 -118.1000 270° West 253 291 4,700 -865 Descending Southern California TRACON
Wed 07:40:05 PM 33.9769 -118.1667 281° West 247 284 4,000 -1,009 Descending Los Angeles Center
Wed 07:41:07 PM 33.9697 -118.2347 263° West 217 250 2,800 -968 Descending Los Angeles Center
Wed 07:42:09 PM 33.9636 -118.2886 262° West 188 216 2,000 -677 Descending Los Angeles Center
Wed 07:43:11 PM 33.9592 -118.3319 263° West 155 178 1,400 -768 Descending Los Angeles Center
Wed 07:44:14 PM 33.9550 -118.3822 264° West 135 155 400 -952 Descending Los Angeles Center

Login

Don't have an account? Register now (free) for customized features, flight alerts, and more!